Time;durP1;ratioP1;P1;durP2;ratioP2;P2;SDS_P1;SDS_P2;PMS_P1;PMS_P2;Temp;Humidity;BMP_temperature;BMP_pressure;BME280_temperature;BME280_humidity;BME280_pressure;Samples;Min_cycle;Max_cycle;Signal;HPM_P1;HPM_P2
2022/11/22 00:00:50;;;;;;;7.17;2.30;;;;;;;8.53;86.33;98555.09;5031448;28;20218;-67
2022/11/22 00:03:18;;;;;;;9.50;2.83;;;;;;;8.55;86.51;98540.69;5038512;28;20227;-67
2022/11/22 00:05:48;;;;;;;9.20;2.50;;;;;;;8.49;86.60;98530.88;5033718;28;20221;-67
2022/11/22 00:08:16;;;;;;;8.33;2.27;;;;;;;8.44;86.98;98535.88;5034001;28;20208;-67
2022/11/22 00:10:44;;;;;;;6.53;2.80;;;;;;;8.45;86.91;98536.66;5028862;28;20228;-67
2022/11/22 00:13:12;;;;;;;9.53;2.50;;;;;;;8.45;87.37;98532.22;5036884;28;20224;-66
2022/11/22 00:15:39;;;;;;;7.43;2.53;;;;;;;8.43;87.12;98526.31;5034684;28;20203;-67
2022/11/22 00:18:07;;;;;;;4.77;2.20;;;;;;;8.41;87.32;98523.03;5036987;28;20220;-67
2022/11/22 00:20:37;;;;;;;6.53;2.40;;;;;;;8.44;87.33;98516.56;5030648;28;20265;-67
2022/11/22 00:23:08;;;;;;;6.63;2.63;;;;;;;8.44;87.50;98506.84;5033909;28;20271;-67
2022/11/22 00:25:35;;;;;;;7.87;2.30;;;;;;;8.46;87.23;98507.44;5032839;28;20212;-67
2022/11/22 00:28:03;;;;;;;7.43;2.10;;;;;;;8.48;87.34;98510.72;5035076;28;20211;-67
2022/11/22 00:30:31;;;;;;;5.17;2.07;;;;;;;8.50;87.25;98500.81;5038355;28;20220;-67
2022/11/22 00:32:58;;;;;;;6.47;2.80;;;;;;;8.58;87.30;98507.81;5031282;28;20237;-67
2022/11/22 00:35:26;;;;;;;13.10;2.90;;;;;;;8.57;87.33;98517.56;5037406;28;20216;-66
2022/11/22 00:37:54;;;;;;;9.93;3.13;;;;;;;8.56;87.39;98510.63;5032349;28;20202;-66
2022/11/22 00:40:23;;;;;;;9.90;3.60;;;;;;;8.58;88.47;98515.75;5031656;28;20231;-65
2022/11/22 00:42:51;;;;;;;10.30;3.53;;;;;;;8.75;86.48;98516.38;5029342;28;20203;-67
2022/11/22 00:45:18;;;;;;;12.90;4.87;;;;;;;8.74;85.79;98520.00;5038442;28;20216;-68
2022/11/22 00:47:46;;;;;;;7.57;2.97;;;;;;;8.74;86.16;98509.44;5035023;28;20222;-67
2022/11/22 00:50:14;;;;;;;8.40;3.20;;;;;;;8.77;85.61;98517.00;5038588;28;20208;-66
2022/11/22 00:52:41;;;;;;;8.80;3.20;;;;;;;8.72;85.96;98514.06;5033153;28;20239;-67
2022/11/22 00:55:09;;;;;;;11.27;3.00;;;;;;;8.63;86.68;98516.81;5036350;28;20212;-67
2022/11/22 00:57:38;;;;;;;8.00;3.37;;;;;;;8.65;86.43;98535.97;5039113;28;20233;-67
2022/11/22 01:00:07;;;;;;;11.67;4.47;;;;;;;8.66;86.49;98521.75;5030938;28;20232;-68
2022/11/22 01:02:35;;;;;;;7.43;3.23;;;;;;;8.64;86.23;98528.22;5036098;28;20218;-66
2022/11/22 01:05:03;;;;;;;8.40;3.33;;;;;;;8.65;86.55;98516.66;5033884;28;20217;-66
2022/11/22 01:07:31;;;;;;;7.60;3.30;;;;;;;8.60;86.92;98535.69;5031201;28;20223;-69
2022/11/22 01:10:00;;;;;;;15.10;5.13;;;;;;;8.60;87.37;98548.91;5032505;28;20239;-67
2022/11/22 01:12:28;;;;;;;8.93;3.23;;;;;;;8.59;88.16;98555.19;5034739;28;20232;-66
2022/11/22 01:14:57;;;;;;;6.50;3.17;;;;;;;8.62;88.51;98552.16;5038409;28;20235;-66
2022/11/22 01:17:25;;;;;;;8.40;3.60;;;;;;;8.58;88.65;98556.19;5030819;28;20246;-64
2022/11/22 01:19:52;;;;;;;9.00;3.13;;;;;;;8.60;89.30;98558.66;5028435;28;20204;-67
2022/11/22 01:22:20;;;;;;;13.33;3.73;;;;;;;8.58;89.45;98565.94;5029772;28;20215;-65
2022/11/22 01:24:48;;;;;;;8.93;3.80;;;;;;;8.51;90.51;98560.56;5034297;28;20572;-66
2022/11/22 01:27:16;;;;;;;10.33;4.27;;;;;;;8.56;90.71;98552.91;5041921;28;20210;-67
2022/11/22 01:29:43;;;;;;;10.57;3.70;;;;;;;8.61;91.40;98562.94;5036861;28;20211;-67
2022/11/22 01:32:12;;;;;;;8.57;4.00;;;;;;;8.74;91.08;98564.94;5035719;28;20280;-66
2022/11/22 01:34:40;;;;;;;12.70;4.20;;;;;;;8.83;90.48;98566.47;5031340;28;20254;-67
2022/11/22 01:37:08;;;;;;;7.70;4.07;;;;;;;8.91;89.92;98569.84;5032109;28;20211;-67
2022/11/22 01:39:35;;;;;;;11.97;4.67;;;;;;;8.91;89.38;98582.22;5036750;28;20205;-66
2022/11/22 01:42:03;;;;;;;12.90;4.20;;;;;;;8.90;89.44;98575.31;5032297;28;20236;-67
2022/11/22 01:44:32;;;;;;;9.50;4.40;;;;;;;8.92;89.59;98575.94;5029640;28;20271;-67
2022/11/22 01:47:03;;;;;;;8.30;4.20;;;;;;;8.86;90.25;98571.41;5032893;28;20292;-67
2022/11/22 01:49:39;;;;;;;10.80;4.50;;;;;;;8.94;89.65;98571.31;5034583;28;20239;-66
2022/11/22 01:52:10;;;;;;;11.83;4.50;;;;;;;8.93;89.35;98572.31;5034419;28;20218;-67
2022/11/22 01:54:41;;;;;;;9.50;4.97;;;;;;;8.80;90.62;98564.19;5035581;28;20209;-66
2022/11/22 01:57:14;;;;;;;10.73;5.23;;;;;;;8.84;91.05;98583.97;5035443;28;20213;-64
2022/11/22 01:59:47;;;;;;;9.70;4.60;;;;;;;8.79;91.56;98581.91;5031740;28;20204;-69
2022/11/22 02:02:14;;;;;;;10.20;4.97;;;;;;;8.77;92.31;98577.78;5032743;28;20212;-66
2022/11/22 02:04:45;;;;;;;8.23;4.87;;;;;;;8.78;92.53;98582.06;5033984;28;20267;-66
2022/11/22 02:07:18;;;;;;;9.83;5.47;;;;;;;8.79;92.26;98586.34;5037420;28;20211;-66
2022/11/22 02:09:48;;;;;;;10.40;5.63;;;;;;;8.85;92.59;98594.38;5040841;28;20262;-66
2022/11/22 02:12:17;;;;;;;10.90;4.97;;;;;;;8.94;91.61;98592.47;5038431;28;20275;-67
2022/11/22 02:14:46;;;;;;;8.63;4.73;;;;;;;8.95;91.26;98591.47;5035490;28;20243;-67
2022/11/22 02:17:13;;;;;;;9.77;4.83;;;;;;;8.93;91.26;98591.63;5032136;28;20198;-67
2022/11/22 02:19:45;;;;;;;9.80;4.83;;;;;;;8.93;91.60;98602.19;5032339;28;20300;-67
2022/11/22 02:22:25;;;;;;;10.27;5.33;;;;;;;8.95;91.73;98602.03;5036431;28;20240;-68
2022/11/22 02:24:56;;;;;;;12.53;5.07;;;;;;;8.91;92.30;98595.44;5037534;28;20232;-66
2022/11/22 02:27:26;;;;;;;8.70;5.27;;;;;;;8.94;92.26;98588.00;5041209;28;20214;-66
2022/11/22 02:29:53;;;;;;;12.73;5.30;;;;;;;8.95;92.05;98588.81;5036184;28;20216;-67
2022/11/22 02:32:21;;;;;;;13.00;5.10;;;;;;;8.96;91.81;98586.00;5037234;28;20243;-65
2022/11/22 02:34:50;;;;;;;13.23;5.80;;;;;;;8.96;91.76;98587.81;5032820;28;20233;-67
2022/11/22 02:37:22;;;;;;;11.10;4.90;;;;;;;8.90;92.62;98596.44;5035169;28;20212;-67
2022/11/22 02:39:56;;;;;;;9.83;5.33;;;;;;;8.84;93.36;98602.47;5032795;28;20227;-67
2022/11/22 02:42:27;;;;;;;10.97;5.30;;;;;;;8.86;93.40;98605.75;5033599;28;20723;-66
2022/11/22 02:44:55;;;;;;;11.30;5.20;;;;;;;8.90;93.22;98614.94;5036591;28;20215;-69
2022/11/22 02:47:22;;;;;;;12.90;4.93;;;;;;;8.83;93.65;98606.13;5045983;28;20279;-67
2022/11/22 02:49:52;;;;;;;10.00;4.83;;;;;;;8.81;94.18;98616.03;5042002;28;20222;-68
2022/11/22 02:52:20;;;;;;;9.67;5.57;;;;;;;8.78;94.60;98613.78;5033050;28;20236;-66
2022/11/22 02:54:48;;;;;;;10.13;4.73;;;;;;;8.81;94.38;98611.59;5032093;28;20239;-66
2022/11/22 02:57:15;;;;;;;10.13;4.90;;;;;;;8.80;94.64;98617.88;5035751;28;20323;-67
2022/11/22 02:59:44;;;;;;;9.83;4.40;;;;;;;8.81;95.02;98618.69;5029723;28;20243;-69
2022/11/22 03:02:12;;;;;;;9.43;4.60;;;;;;;8.83;95.20;98624.63;5031856;28;20572;-66
2022/11/22 03:04:40;;;;;;;16.17;5.50;;;;;;;8.85;95.04;98619.97;5033429;28;20287;-67
2022/11/22 03:07:07;;;;;;;10.90;4.10;;;;;;;8.82;95.19;98621.16;5038562;28;20257;-66
2022/11/22 03:09:35;;;;;;;10.13;4.00;;;;;;;8.85;95.25;98622.63;5037603;28;20232;-66
2022/11/22 03:12:05;;;;;;;10.67;4.60;;;;;;;8.90;95.00;98634.28;5033437;28;20240;-68
2022/11/22 03:14:33;;;;;;;8.47;4.00;;;;;;;8.94;94.47;98630.28;5036509;28;20322;-66
2022/11/22 03:17:02;;;;;;;10.73;4.47;;;;;;;8.94;94.33;98637.38;5035816;28;20223;-67
2022/11/22 03:19:29;;;;;;;9.17;4.60;;;;;;;8.91;94.52;98641.22;5041464;28;20247;-67
2022/11/22 03:21:57;;;;;;;5.93;3.60;;;;;;;8.89;94.27;98642.38;5035846;28;20205;-67
2022/11/22 03:24:25;;;;;;;11.13;4.30;;;;;;;8.87;94.73;98647.88;5039517;28;20202;-67
2022/11/22 03:26:53;;;;;;;10.30;4.13;;;;;;;8.89;95.07;98656.41;5037842;28;20329;-66
2022/11/22 03:29:21;;;;;;;9.03;3.67;;;;;;;8.94;94.35;98650.59;5038177;28;20220;-66
2022/11/22 03:31:48;;;;;;;11.17;4.00;;;;;;;9.02;93.45;98642.59;5032847;28;20533;-66
2022/11/22 03:34:17;;;;;;;7.53;3.20;;;;;;;9.07;92.77;98646.31;5033469;28;20256;-67
2022/11/22 03:36:45;;;;;;;10.60;3.53;;;;;;;8.99;93.08;98649.03;5037683;28;20249;-66
2022/11/22 03:39:13;;;;;;;8.70;2.97;;;;;;;9.06;92.83;98659.69;5037919;28;20214;-66
2022/11/22 03:41:41;;;;;;;10.40;3.60;;;;;;;9.06;92.83;98649.13;5044334;28;20236;-69
2022/11/22 03:44:08;;;;;;;9.13;2.90;;;;;;;9.11;92.06;98652.06;5036252;28;20473;-65
2022/11/22 03:46:36;;;;;;;6.37;2.53;;;;;;;9.06;91.86;98657.88;5039276;28;20235;-67
2022/11/22 03:49:04;;;;;;;8.70;3.80;;;;;;;9.05;92.08;98656.28;5043378;28;20193;-65
2022/11/22 03:51:33;;;;;;;11.93;3.00;;;;;;;9.06;91.79;98649.13;5036258;28;20242;-66
2022/11/22 03:54:01;;;;;;;8.73;3.03;;;;;;;9.07;91.53;98646.31;5035033;28;20220;-65
2022/11/22 03:56:28;;;;;;;9.53;2.97;;;;;;;9.06;91.36;98651.78;5032208;28;20219;-66
2022/11/22 03:58:56;;;;;;;8.40;2.57;;;;;;;9.01;91.67;98649.69;5034242;28;20219;-65
2022/11/22 04:01:24;;;;;;;9.30;2.90;;;;;;;8.96;91.99;98633.56;5035838;28;20314;-67
2022/11/22 04:03:52;;;;;;;7.20;2.30;;;;;;;8.98;91.56;98636.00;5028903;28;20204;-66
2022/11/22 04:06:20;;;;;;;12.83;3.37;;;;;;;8.95;91.28;98644.31;5040980;28;20212;-67
2022/11/22 04:08:49;;;;;;;9.13;2.70;;;;;;;8.94;92.01;98650.59;5038664;28;20275;-66
2022/11/22 04:11:17;;;;;;;9.77;2.77;;;;;;;8.92;91.85;98649.97;5036267;28;20251;-65
2022/11/22 04:16:30;;;;;;;10.77;2.90;;;;;;;8.84;92.42;98669.38;5038921;28;20283;-65
2022/11/22 04:18:57;;;;;;;11.33;2.90;;;;;;;8.89;92.06;98669.63;5031437;28;20232;-67
2022/11/22 04:21:33;;;;;;;9.83;2.90;;;;;;;8.91;91.92;98680.03;5035303;28;20279;-67
2022/11/22 04:26:50;;;;;;;10.87;3.13;;;;;;;8.90;91.32;98678.38;5035416;28;20204;-67
2022/11/22 04:29:19;;;;;;;12.20;3.83;;;;;;;8.86;91.70;98679.75;5030868;28;20247;-65
2022/11/22 04:34:34;;;;;;;11.20;2.60;;;;;;;8.84;91.70;98684.41;5031654;28;20216;-65
2022/11/22 04:37:02;;;;;;;11.10;3.37;;;;;;;8.87;91.76;98681.41;5037704;28;20232;-66
2022/11/22 04:39:32;;;;;;;10.30;2.70;;;;;;;8.91;91.00;98686.13;5036193;28;20212;-67
2022/11/22 04:44:46;;;;;;;9.47;3.27;;;;;;;8.89;89.89;98689.97;5034340;28;20239;-65
2022/11/22 04:47:57;;;;;;;11.00;3.10;;;;;;;8.89;89.95;98693.44;5035466;28;20215;-67
2022/11/22 04:52:52;;;;;;;6.30;2.27;;;;;;;8.86;89.67;98685.88;5032631;28;20271;-67
2022/11/22 04:52:56;;;;;;;13.43;2.87;;;;;;;8.78;88.98;98687.78;5035434;28;20221;-65
2022/11/22 04:55:26;;;;;;;13.00;3.07;;;;;;;8.77;88.78;98680.84;5032801;28;20872;-66
2022/11/22 04:57:53;;;;;;;11.07;3.50;;;;;;;8.76;88.35;98682.66;5033332;28;20234;-64
2022/11/22 05:00:27;;;;;;;8.97;2.47;;;;;;;8.74;87.89;98678.56;5036028;28;20244;-66
2022/11/22 05:02:55;;;;;;;8.00;2.60;;;;;;;8.72;87.51;98677.91;5034120;28;20215;-66
2022/11/22 05:05:23;;;;;;;14.10;3.60;;;;;;;8.74;87.12;98681.19;5031386;28;20333;-66
2022/11/22 05:07:51;;;;;;;10.83;2.30;;;;;;;8.75;86.83;98694.22;5033160;28;20213;-67
2022/11/22 05:10:19;;;;;;;9.63;2.77;;;;;;;8.76;86.77;98695.88;5034906;28;20234;-67
2022/11/22 05:12:54;;;;;;;15.93;3.00;;;;;;;8.82;85.94;98689.03;5033020;28;20237;-65
2022/11/22 05:15:22;;;;;;;15.43;2.63;;;;;;;8.92;85.42;98692.25;5031994;28;20224;-65
2022/11/22 05:17:50;;;;;;;8.43;1.93;;;;;;;9.03;84.78;98697.09;5030638;28;20208;-66
2022/11/22 05:20:18;;;;;;;11.30;2.90;;;;;;;9.09;83.71;98706.94;5034608;28;20223;-67
2022/11/22 05:25:31;;;;;;;8.00;2.37;;;;;;;9.21;82.87;98705.50;5033992;28;20222;-65
2022/11/22 05:28:00;;;;;;;14.93;2.90;;;;;;;9.21;82.37;98712.63;5038326;28;20259;-66
2022/11/22 05:30:28;;;;;;;13.47;2.17;;;;;;;9.12;82.81;98711.88;5035120;28;20218;-67
2022/11/22 05:32:55;;;;;;;20.03;2.57;;;;;;;9.07;83.58;98711.59;5036925;28;20226;-66
2022/11/22 05:35:23;;;;;;;17.37;2.50;;;;;;;9.09;83.67;98722.81;5037995;28;20227;-67
2022/11/22 05:37:51;;;;;;;12.00;2.33;;;;;;;9.05;83.51;98717.06;5039766;28;20484;-65
2022/11/22 05:40:18;;;;;;;16.03;2.87;;;;;;;8.97;83.95;98725.06;5030896;28;20283;-66
2022/11/22 05:42:46;;;;;;;10.43;2.43;;;;;;;9.01;83.53;98736.09;5034094;28;20216;-67
2022/11/22 05:45:15;;;;;;;9.90;2.47;;;;;;;9.02;82.92;98743.03;5036733;28;20222;-66
2022/11/22 05:47:43;;;;;;;9.73;2.07;;;;;;;9.05;82.47;98740.03;5035446;28;20239;-66
2022/11/22 05:50:11;;;;;;;12.73;2.10;;;;;;;9.14;81.53;98736.31;5038685;28;20219;-67
2022/11/22 05:52:39;;;;;;;11.47;2.00;;;;;;;9.19;80.77;98733.94;5037640;28;20206;-64
2022/11/22 05:55:07;;;;;;;10.07;1.97;;;;;;;9.25;79.16;98735.84;5042500;28;20207;-67
2022/11/22 05:57:35;;;;;;;14.60;2.83;;;;;;;9.28;78.92;98737.31;5035481;28;20255;-67
2022/11/22 06:00:03;;;;;;;10.90;1.90;;;;;;;9.25;77.86;98738.50;5035706;28;20222;-65
2022/11/22 06:02:33;;;;;;;12.13;2.30;;;;;;;9.22;77.71;98744.16;5039236;28;20271;-67
2022/11/22 06:05:00;;;;;;;16.57;2.40;;;;;;;9.19;77.93;98747.16;5034898;28;20741;-67
2022/11/22 06:07:28;;;;;;;19.77;2.80;;;;;;;9.25;78.33;98759.66;5042610;28;20319;-67
2022/11/22 06:09:56;;;;;;;14.27;2.10;;;;;;;9.31;77.71;98758.97;5040361;28;20228;-68
2022/11/22 06:12:23;;;;;;;17.97;3.73;;;;;;;9.38;77.46;98762.50;5031479;28;20240;-67
2022/11/22 06:14:51;;;;;;;15.33;2.13;;;;;;;9.48;77.55;98769.34;5045912;28;20246;-66
2022/11/22 06:17:19;;;;;;;16.03;2.07;;;;;;;9.53;74.83;98769.63;5033131;28;20292;-68
2022/11/22 06:19:48;;;;;;;11.40;2.00;;;;;;;9.51;74.75;98768.97;5034804;28;20213;-67
2022/11/22 06:22:16;;;;;;;10.23;2.33;;;;;;;9.49;74.83;98771.81;5039427;28;20239;-66
2022/11/22 06:24:46;;;;;;;10.70;2.00;;;;;;;9.49;74.27;98777.13;5036024;28;20221;-66
2022/11/22 06:27:14;;;;;;;12.57;2.20;;;;;;;9.47;74.40;98776.47;5041795;28;20199;-66
2022/11/22 06:29:42;;;;;;;13.23;2.20;;;;;;;9.51;75.22;98780.38;5042166;28;20409;-67
2022/11/22 06:32:10;;;;;;;14.33;2.27;;;;;;;9.56;75.05;98787.78;5039997;28;20214;-67
2022/11/22 06:34:37;;;;;;;16.20;3.70;;;;;;;9.61;75.43;98795.97;5033720;28;20200;-67
2022/11/22 06:37:06;;;;;;;11.73;2.17;;;;;;;9.69;75.04;98794.06;5034535;28;20243;-66
2022/11/22 06:39:34;;;;;;;15.10;2.07;;;;;;;9.67;73.49;98811.16;5036333;28;20213;-68
2022/11/22 06:42:02;;;;;;;10.73;2.13;;;;;;;9.61;74.16;98806.56;5034660;28;21030;-68
2022/11/22 06:44:30;;;;;;;10.23;2.03;;;;;;;9.61;73.07;98811.88;5040811;28;20221;-67
2022/11/22 06:46:57;;;;;;;7.57;1.33;;;;;;;9.56;72.22;98819.53;5032820;28;20219;-66
2022/11/22 06:49:25;;;;;;;11.60;1.87;;;;;;;9.56;71.32;98830.94;5037569;28;20205;-66
2022/11/22 06:51:53;;;;;;;11.23;2.03;;;;;;;9.53;69.74;98826.00;5043250;28;20231;-66
2022/11/22 06:54:23;;;;;;;14.10;1.63;;;;;;;9.50;68.80;98830.84;5043849;28;20208;-66
2022/11/22 06:56:50;;;;;;;8.67;1.93;;;;;;;9.54;69.44;98834.75;5044873;28;20226;-67
2022/11/22 06:59:18;;;;;;;12.43;1.93;;;;;;;9.58;69.15;98828.94;5036240;28;20190;-66
2022/11/22 07:01:46;;;;;;;13.03;1.87;;;;;;;9.59;69.76;98829.75;5040939;28;20197;-66
2022/11/22 07:04:14;;;;;;;9.30;1.60;;;;;;;9.63;69.14;98825.75;5045409;28;20212;-66
2022/11/22 07:06:43;;;;;;;6.07;1.30;;;;;;;9.62;68.72;98818.81;5043274;28;20229;-66
2022/11/22 07:09:11;;;;;;;10.17;1.60;;;;;;;9.59;68.90;98835.03;5039418;28;20214;-66
2022/11/22 07:11:41;;;;;;;9.70;1.80;;;;;;;9.58;68.78;98830.78;5039092;28;20654;-66
2022/11/22 07:14:08;;;;;;;7.17;1.63;;;;;;;9.56;68.49;98825.66;5038253;28;20226;-66
2022/11/22 07:16:37;;;;;;;9.60;1.60;;;;;;;9.48;68.74;98830.19;5037941;28;20309;-66
2022/11/22 07:19:06;;;;;;;9.83;1.87;;;;;;;9.47;70.15;98836.50;5032990;28;20201;-65
2022/11/22 07:21:35;;;;;;;9.40;2.10;;;;;;;9.50;70.56;98836.16;5046421;28;20212;-66
2022/11/22 07:24:05;;;;;;;11.97;1.77;;;;;;;9.54;70.45;98837.41;5037625;28;20284;-66
2022/11/22 07:26:33;;;;;;;6.87;1.60;;;;;;;9.57;69.97;98843.19;5040875;28;20254;-66
2022/11/22 07:29:02;;;;;;;7.80;1.80;;;;;;;9.61;69.33;98833.03;5037787;28;20217;-66
2022/11/22 07:31:30;;;;;;;9.33;1.40;;;;;;;9.66;68.72;98842.09;5039419;28;20296;-67
2022/11/22 07:33:58;;;;;;;7.57;1.80;;;;;;;9.73;68.51;98843.00;5034846;28;20216;-66
2022/11/22 07:36:28;;;;;;;9.57;1.60;;;;;;;9.73;67.73;98848.28;5050609;28;20227;-66
2022/11/22 07:38:56;;;;;;;7.20;1.90;;;;;;;9.67;67.96;98858.78;5038371;28;20213;-66
2022/11/22 07:41:24;;;;;;;12.80;2.73;;;;;;;9.68;68.28;98861.22;5036427;28;20217;-66
2022/11/22 07:43:51;;;;;;;11.87;2.13;;;;;;;9.69;68.32;98862.06;5037433;28;20233;-68
2022/11/22 07:46:24;;;;;;;7.77;1.73;;;;;;;9.70;69.01;98874.28;5037327;28;20244;-66
2022/11/22 07:48:52;;;;;;;8.30;2.07;;;;;;;9.75;68.67;98879.88;5037417;28;20320;-67
2022/11/22 07:51:20;;;;;;;9.00;1.47;;;;;;;9.77;67.51;98883.97;5034602;28;20209;-65
2022/11/22 07:53:48;;;;;;;7.73;1.53;;;;;;;9.82;67.53;98888.72;5041053;28;20259;-68
2022/11/22 07:56:16;;;;;;;10.40;1.60;;;;;;;9.85;67.38;98888.34;5034477;28;20205;-68
2022/11/22 07:58:44;;;;;;;8.93;1.43;;;;;;;9.86;67.38;98884.69;5043801;28;20409;-67
2022/11/22 08:01:14;;;;;;;7.13;1.47;;;;;;;9.90;66.48;98880.69;5040454;28;20543;-67
2022/11/22 08:03:44;;;;;;;8.60;1.40;;;;;;;9.84;66.09;98884.09;5034143;28;20213;-66
2022/11/22 08:06:13;;;;;;;9.33;1.73;;;;;;;9.80;65.81;98896.03;5035240;28;20219;-66
2022/11/22 08:08:41;;;;;;;7.73;1.70;;;;;;;9.76;66.21;98897.41;5033801;28;20252;-66
2022/11/22 08:11:10;;;;;;;7.00;1.80;;;;;;;9.70;66.69;98901.56;5036422;28;20244;-66
2022/11/22 08:13:38;;;;;;;8.60;1.57;;;;;;;9.74;67.67;98902.06;5036413;28;20848;-67
2022/11/22 08:16:09;;;;;;;9.13;1.60;;;;;;;9.78;67.25;98913.91;5033157;28;20209;-67
2022/11/22 08:18:39;;;;;;;8.60;1.73;;;;;;;9.74;67.38;98917.94;5037818;28;20269;-67
2022/11/22 08:21:09;;;;;;;9.23;2.03;;;;;;;9.77;67.53;98909.63;5036900;28;20248;-67
2022/11/22 08:23:38;;;;;;;14.33;1.80;;;;;;;9.76;68.12;98918.59;5033715;28;20244;-65
2022/11/22 08:26:07;;;;;;;10.50;1.73;;;;;;;9.79;68.25;98920.84;5043646;28;20268;-68
2022/11/22 08:28:35;;;;;;;9.40;2.00;;;;;;;9.72;68.63;98919.94;5041879;28;20202;-66
2022/11/22 08:31:06;;;;;;;12.80;2.10;;;;;;;9.76;68.54;98921.22;5042616;28;20205;-65
2022/11/22 08:33:33;;;;;;;14.33;2.47;;;;;;;9.75;68.46;98925.69;5032212;28;20297;-67
2022/11/22 08:36:01;;;;;;;8.57;1.87;;;;;;;9.69;69.22;98928.22;5036068;28;20197;-67
2022/11/22 08:38:30;;;;;;;12.90;1.73;;;;;;;9.70;69.02;98922.75;5037442;28;20284;-67
2022/11/22 08:40:58;;;;;;;10.33;2.43;;;;;;;9.74;69.02;98925.88;5038929;28;20212;-68
2022/11/22 08:43:26;;;;;;;11.87;2.20;;;;;;;9.74;69.26;98929.34;5043246;28;20736;-65
2022/11/22 08:45:56;;;;;;;7.40;2.10;;;;;;;9.75;69.93;98923.06;5041297;28;20220;-64
2022/11/22 08:48:24;;;;;;;8.93;2.43;;;;;;;9.71;70.13;98926.22;5044302;28;20231;-65
2022/11/22 08:50:52;;;;;;;10.73;2.23;;;;;;;9.70;70.58;98924.56;5036816;28;20216;-66
2022/11/22 08:53:20;;;;;;;14.43;3.10;;;;;;;9.66;71.23;98916.19;5037525;28;20280;-67
2022/11/22 08:55:50;;;;;;;11.50;2.07;;;;;;;9.69;71.13;98915.00;5042262;28;20185;-67
2022/11/22 08:58:18;;;;;;;10.10;2.73;;;;;;;9.70;71.23;98921.94;5033897;28;20237;-67
2022/11/22 09:00:46;;;;;;;10.73;2.17;;;;;;;9.73;71.38;98926.88;5034735;28;20208;-67
2022/11/22 09:03:14;;;;;;;11.40;2.17;;;;;;;9.77;71.00;98922.84;5031931;28;20228;-66
2022/11/22 09:05:42;;;;;;;10.57;2.20;;;;;;;9.80;70.90;98927.78;5040190;28;20205;-67
2022/11/22 09:08:30;;;;;;;14.93;2.20;;;;;;;9.82;70.73;98921.31;5039196;28;20201;-65
2022/11/22 09:11:07;;;;;;;9.27;1.90;;;;;;;9.92;69.81;98926.34;5032705;28;20240;-66
2022/11/22 09:13:35;;;;;;;10.77;2.23;;;;;;;9.90;69.48;98917.78;5038260;28;20510;-67
2022/11/22 09:16:05;;;;;;;8.03;2.07;;;;;;;9.90;69.70;98925.72;5030877;28;20219;-67
2022/11/22 09:18:33;;;;;;;9.90;2.00;;;;;;;9.98;68.93;98920.31;5030139;28;20226;-66
2022/11/22 09:21:03;;;;;;;9.43;2.13;;;;;;;10.03;69.27;98919.78;5041191;28;20246;-66
2022/11/22 09:23:31;;;;;;;11.27;2.40;;;;;;;10.15;68.82;98921.78;5033536;28;20201;-66
2022/11/22 09:26:00;;;;;;;12.20;1.90;;;;;;;10.25;68.27;98923.38;5031643;28;20228;-66
2022/11/22 09:28:30;;;;;;;10.90;2.27;;;;;;;10.37;67.41;98928.03;5036383;28;20266;-67
2022/11/22 09:31:01;;;;;;;17.60;2.10;;;;;;;10.33;67.84;98917.97;5032017;28;20237;-66
2022/11/22 09:33:29;;;;;;;9.93;2.20;;;;;;;10.35;67.14;98929.22;5036841;28;20215;-66
2022/11/22 09:36:01;;;;;;;11.30;2.07;;;;;;;10.35;66.84;98926.56;5028891;28;20511;-67
2022/11/22 09:38:30;;;;;;;10.87;2.50;;;;;;;10.41;66.31;98925.81;5035732;28;20259;-67
2022/11/22 09:40:58;;;;;;;10.60;2.90;;;;;;;10.51;66.25;98923.72;5034454;28;20209;-68
2022/11/22 09:43:37;;;;;;;16.97;3.37;;;;;;;10.47;65.63;98920.59;5024202;28;20268;-67
2022/11/22 09:46:21;;;;;;;12.37;2.43;;;;;;;10.47;65.72;98919.78;5030736;28;20221;-66
2022/11/22 09:49:07;;;;;;;6.13;1.93;;;;;;;10.45;66.09;98919.16;5025426;28;20252;-66
2022/11/22 09:51:41;;;;;;;7.83;1.87;;;;;;;10.52;65.72;98912.13;5032725;28;20201;-65
2022/11/22 09:54:13;;;;;;;23.23;5.67;;;;;;;10.47;65.90;98925.09;5034291;28;20209;-67
2022/11/22 09:56:41;;;;;;;13.70;3.57;;;;;;;10.43;66.57;98910.56;5040919;28;20892;-67
2022/11/22 09:59:16;;;;;;;16.47;3.80;;;;;;;10.36;66.69;98907.03;5037033;28;20233;-68
2022/11/22 10:01:49;;;;;;;10.10;2.60;;;;;;;10.34;67.05;98901.91;5031253;28;20244;-66
2022/11/22 10:04:22;;;;;;;16.57;2.10;;;;;;;10.33;66.92;98905.56;5034651;28;20233;-67
2022/11/22 10:06:55;;;;;;;12.03;2.00;;;;;;;10.28;67.57;98894.69;5029235;28;20202;-65
2022/11/22 10:09:33;;;;;;;13.53;2.00;;;;;;;10.31;67.67;98896.16;5032398;28;20233;-66
2022/11/22 10:12:07;;;;;;;10.90;2.07;;;;;;;10.32;67.68;98903.09;5029633;28;20366;-67
2022/11/22 10:14:47;;;;;;;9.87;2.03;;;;;;;10.24;68.33;98897.88;5031559;28;20216;-67
2022/11/22 10:17:28;;;;;;;9.37;2.17;;;;;;;10.35;67.65;98900.09;5041002;28;20315;-66
2022/11/22 10:20:04;;;;;;;11.00;2.87;;;;;;;10.32;67.48;98905.75;5030988;28;20596;-67
2022/11/22 10:22:33;;;;;;;16.47;2.73;;;;;;;10.23;67.70;98904.19;5033506;28;20204;-67
2022/11/22 10:25:03;;;;;;;13.93;2.53;;;;;;;10.20;67.70;98902.75;5034993;28;20225;-66
2022/11/22 10:27:32;;;;;;;8.00;2.20;;;;;;;10.16;67.72;98904.06;5039422;28;20201;-66
2022/11/22 10:30:05;;;;;;;11.53;2.20;;;;;;;10.10;67.68;98900.34;5033960;28;20213;-67
2022/11/22 10:32:40;;;;;;;8.97;2.10;;;;;;;10.12;67.41;98900.97;5039359;28;20208;-67
2022/11/22 10:35:40;;;;;;;9.77;2.23;;;;;;;10.04;68.16;98897.59;5044736;28;20201;-67
2022/11/22 10:38:35;;;;;;;11.70;2.47;;;;;;;10.09;68.01;98901.34;5032309;28;20495;-66
2022/11/22 10:41:15;;;;;;;12.17;1.97;;;;;;;10.17;67.83;98897.78;5036254;28;20201;-69
2022/11/22 10:43:51;;;;;;;6.97;1.87;;;;;;;10.19;67.49;98901.09;5035989;28;20212;-67
2022/11/22 10:46:35;;;;;;;10.50;2.13;;;;;;;10.12;68.38;98903.59;5036180;28;20731;-67
2022/11/22 10:49:13;;;;;;;10.03;2.50;;;;;;;10.21;68.53;98908.84;5038377;28;20672;-67
2022/11/22 10:51:51;;;;;;;12.10;2.13;;;;;;;10.22;68.99;98894.59;5039826;28;20217;-68
2022/11/22 10:54:28;;;;;;;9.53;2.30;;;;;;;10.31;68.98;98888.19;5032986;28;20205;-65
2022/11/22 10:57:00;;;;;;;9.67;2.53;;;;;;;10.39;68.86;98890.75;5033354;28;20535;-66
2022/11/22 10:59:47;;;;;;;12.60;3.10;;;;;;;10.48;68.47;98889.63;5030476;28;20217;-67
2022/11/22 11:02:40;;;;;;;10.93;2.60;;;;;;;10.65;68.02;98898.19;5026587;28;20712;-67
2022/11/22 11:05:13;;;;;;;9.80;1.90;;;;;;;10.62;68.11;98894.09;5035487;28;20209;-66
2022/11/22 11:07:46;;;;;;;9.77;2.50;;;;;;;10.58;67.40;98903.41;5039384;28;20299;-67
2022/11/22 11:10:17;;;;;;;9.53;2.10;;;;;;;10.53;67.38;98905.81;5038468;28;20265;-67
2022/11/22 11:13:02;;;;;;;9.50;2.60;;;;;;;10.73;66.84;98903.41;5037053;28;20323;-67
2022/11/22 11:15:35;;;;;;;14.40;2.53;;;;;;;10.79;65.95;98903.47;5031508;28;20225;-68
2022/11/22 11:18:12;;;;;;;10.10;3.03;;;;;;;10.73;65.82;98904.19;5038074;28;20205;-67
2022/11/22 11:20:42;;;;;;;8.60;2.20;;;;;;;10.72;65.24;98896.44;5038692;28;20217;-68
2022/11/22 11:23:10;;;;;;;16.30;3.47;;;;;;;10.64;65.48;98893.91;5035110;28;20221;-68
2022/11/22 11:25:44;;;;;;;7.70;2.00;;;;;;;10.60;65.36;98888.16;5033410;28;20211;-68
2022/11/22 11:28:17;;;;;;;15.87;2.93;;;;;;;10.49;65.65;98893.94;5037501;28;20228;-66
2022/11/22 11:30:47;;;;;;;11.17;2.17;;;;;;;10.48;65.48;98893.09;5041657;28;20205;-68
2022/11/22 11:33:25;;;;;;;9.17;1.87;;;;;;;10.51;65.40;98894.56;5039601;28;20261;-67
2022/11/22 11:35:56;;;;;;;9.33;1.87;;;;;;;10.52;65.87;98891.75;5036719;28;20207;-67
2022/11/22 11:38:32;;;;;;;6.83;1.60;;;;;;;10.56;65.25;98886.88;5030096;28;20264;-68
2022/11/22 11:41:20;;;;;;;9.93;1.93;;;;;;;10.71;64.07;98879.72;5034895;28;20213;-68
2022/11/22 11:43:48;;;;;;;6.57;1.67;;;;;;;10.82;63.67;98875.75;5039951;28;20273;-67
2022/11/22 11:46:19;;;;;;;14.43;2.43;;;;;;;10.82;62.93;98870.44;5034740;28;20273;-67
2022/11/22 11:48:49;;;;;;;8.00;2.57;;;;;;;10.92;62.51;98877.06;5033899;28;20216;-68
2022/11/22 11:51:21;;;;;;;10.27;2.87;;;;;;;11.05;61.83;98875.56;5041589;28;20225;-66
2022/11/22 11:53:54;;;;;;;9.13;2.10;;;;;;;11.08;61.63;98875.19;5035715;28;20226;-68
2022/11/22 11:56:35;;;;;;;8.57;2.10;;;;;;;11.11;61.66;98870.31;5031185;28;20213;-68
2022/11/22 11:59:07;;;;;;;12.10;3.53;;;;;;;11.06;61.12;98877.22;5033659;28;20224;-67
2022/11/22 12:01:36;;;;;;;12.27;3.27;;;;;;;11.00;61.32;98867.34;5037897;28;20217;-66
2022/11/22 12:04:19;;;;;;;8.67;2.03;;;;;;;10.98;61.30;98877.34;5033973;28;20236;-68